createdAt,value
2023-05-16T00:01:09.278Z,4.33
2023-05-16T00:03:38.093Z,5.57
2023-05-16T00:06:07.682Z,5.70
2023-05-16T00:08:35.478Z,3.60
2023-05-16T00:11:03.465Z,3.87
2023-05-16T00:13:31.821Z,3.80
2023-05-16T00:16:02.496Z,3.83
2023-05-16T00:18:30.433Z,3.80
2023-05-16T00:20:58.614Z,3.60
2023-05-16T00:23:27.873Z,3.70
2023-05-16T00:25:56.040Z,4.00
2023-05-16T00:28:23.953Z,3.77
2023-05-16T00:30:51.790Z,3.93
2023-05-16T00:33:19.638Z,3.80
2023-05-16T00:35:47.475Z,4.07
2023-05-16T00:38:15.285Z,4.03
2023-05-16T00:40:44.393Z,4.87
2023-05-16T00:43:12.243Z,3.53
2023-05-16T00:45:40.207Z,3.90
2023-05-16T00:48:09.434Z,4.03
2023-05-16T00:50:38.701Z,4.07
2023-05-16T00:53:07.002Z,4.07
2023-05-16T00:55:34.849Z,4.20
2023-05-16T00:58:04.246Z,4.33
2023-05-16T01:00:32.441Z,6.03
2023-05-16T01:03:01.145Z,3.77
2023-05-16T01:05:30.310Z,4.27
2023-05-16T01:07:59.359Z,3.87
2023-05-16T01:10:33.782Z,4.30
2023-05-16T01:13:13.451Z,4.97
2023-05-16T01:15:48.522Z,5.33
2023-05-16T01:18:25.662Z,4.97
2023-05-16T01:20:59.687Z,4.90
2023-05-16T01:23:45.191Z,4.73
2023-05-16T01:26:23.068Z,4.30
2023-05-16T01:28:52.351Z,4.37
2023-05-16T01:31:20.947Z,4.67
2023-05-16T01:33:49.955Z,4.30
2023-05-16T01:36:26.429Z,4.20
2023-05-16T01:39:08.531Z,3.97
2023-05-16T01:41:48.678Z,4.63
2023-05-16T01:44:23.527Z,4.87
2023-05-16T01:46:57.659Z,4.63
2023-05-16T01:49:31.753Z,4.30
2023-05-16T01:52:03.141Z,4.07
2023-05-16T01:54:33.574Z,4.50
2023-05-16T01:57:08.308Z,4.47
2023-05-16T01:59:37.152Z,4.13
2023-05-16T02:02:05.045Z,4.83
2023-05-16T02:04:32.898Z,4.80
2023-05-16T02:07:01.984Z,4.67
2023-05-16T02:09:29.780Z,5.00
2023-05-16T02:11:57.561Z,6.30
2023-05-16T02:14:27.218Z,4.67
2023-05-16T02:16:55.284Z,4.60
2023-05-16T02:19:23.243Z,4.87
2023-05-16T02:21:51.607Z,4.87
2023-05-16T02:24:19.419Z,5.40
2023-05-16T02:26:47.266Z,4.60
2023-05-16T02:29:16.244Z,5.23
2023-05-16T02:31:45.542Z,5.20
2023-05-16T02:34:15.960Z,4.90
2023-05-16T02:36:43.846Z,5.10
2023-05-16T02:39:11.700Z,4.90
2023-05-16T02:41:40.273Z,4.87
2023-05-16T02:44:09.742Z,5.30
2023-05-16T02:46:37.690Z,4.80
2023-05-16T02:49:07.223Z,5.33
2023-05-16T02:51:35.098Z,5.47
2023-05-16T02:54:03.044Z,4.70
2023-05-16T02:56:30.960Z,5.73
2023-05-16T02:59:00.791Z,4.60
2023-05-16T03:01:28.832Z,5.60
2023-05-16T03:03:57.066Z,4.60
2023-05-16T03:06:26.394Z,6.83
2023-05-16T03:08:54.179Z,5.13
2023-05-16T03:11:24.111Z,5.13
2023-05-16T03:13:51.999Z,5.00
2023-05-16T03:16:19.869Z,5.40
2023-05-16T03:18:47.796Z,5.20
2023-05-16T03:21:15.930Z,5.43
2023-05-16T03:23:49.295Z,5.13
2023-05-16T03:26:17.378Z,5.13
2023-05-16T03:28:45.320Z,5.53
2023-05-16T03:31:13.172Z,5.10
2023-05-16T03:33:43.754Z,5.30
2023-05-16T03:36:11.845Z,5.70
2023-05-16T03:38:39.801Z,6.97
2023-05-16T03:41:11.055Z,5.83
2023-05-16T03:43:39.115Z,7.13
2023-05-16T03:46:06.992Z,6.03
2023-05-16T03:48:34.911Z,6.60
2023-05-16T03:51:02.693Z,6.27
2023-05-16T03:53:30.526Z,6.23
2023-05-16T03:55:58.328Z,6.70
2023-05-16T03:58:27.484Z,5.90
2023-05-16T04:00:55.316Z,6.97
2023-05-16T04:03:28.524Z,8.40
2023-05-16T04:05:57.293Z,7.33
2023-05-16T04:08:25.749Z,5.70
2023-05-16T04:10:53.571Z,6.33
2023-05-16T04:13:21.383Z,5.67
2023-05-16T04:15:50.557Z,6.57
2023-05-16T04:18:19.404Z,6.50
2023-05-16T04:20:47.616Z,5.73
2023-05-16T04:23:15.421Z,6.40
2023-05-16T04:25:43.228Z,7.37
2023-05-16T04:28:11.103Z,6.10
2023-05-16T04:30:38.945Z,6.80
2023-05-16T04:33:08.377Z,6.40
2023-05-16T04:35:37.664Z,5.53
2023-05-16T04:38:05.558Z,6.53
2023-05-16T04:40:33.990Z,7.27
2023-05-16T04:43:01.890Z,7.10
2023-05-16T04:45:29.800Z,7.17
2023-05-16T04:47:57.962Z,6.70
2023-05-16T04:50:27.248Z,6.67
2023-05-16T04:52:56.578Z,8.13
2023-05-16T04:55:24.731Z,7.37
2023-05-16T04:57:52.903Z,7.20
2023-05-16T05:00:23.899Z,6.70
2023-05-16T05:02:51.818Z,8.10
2023-05-16T05:05:20.228Z,7.40
2023-05-16T05:07:49.635Z,8.00
2023-05-16T05:10:17.555Z,8.13
2023-05-16T05:12:45.362Z,6.70
2023-05-16T05:15:13.514Z,7.30
2023-05-16T05:17:41.462Z,8.40
2023-05-16T05:20:10.439Z,8.50
2023-05-16T05:22:38.255Z,7.60
2023-05-16T05:25:08.355Z,8.00
2023-05-16T05:27:36.666Z,7.97
2023-05-16T05:30:05.407Z,8.30
2023-05-16T05:32:35.828Z,8.87
2023-05-16T05:35:03.861Z,8.37
2023-05-16T05:37:31.956Z,9.87
2023-05-16T05:39:59.753Z,8.80
2023-05-16T05:42:31.548Z,9.87
2023-05-16T05:44:59.323Z,10.07
2023-05-16T05:47:27.265Z,9.27
2023-05-16T05:49:55.170Z,10.87
2023-05-16T05:52:23.087Z,13.80
2023-05-16T05:54:57.961Z,9.87
2023-05-16T05:57:25.910Z,9.80
2023-05-16T05:59:55.118Z,10.17
2023-05-16T06:02:22.914Z,11.10
2023-05-16T06:04:50.760Z,11.67
2023-05-16T06:07:18.543Z,10.47
2023-05-16T06:09:46.780Z,11.93
2023-05-16T06:12:14.558Z,11.40
2023-05-16T06:14:42.317Z,11.70
2023-05-16T06:17:11.537Z,11.80
2023-05-16T06:19:39.447Z,11.07
2023-05-16T06:22:07.229Z,11.83
2023-05-16T06:24:38.034Z,11.53
2023-05-16T06:27:06.315Z,12.60
2023-05-16T06:29:34.160Z,12.07
2023-05-16T06:32:02.018Z,11.97
2023-05-16T06:34:32.231Z,12.37
2023-05-16T06:37:00.844Z,10.73
2023-05-16T06:39:28.645Z,13.10
2023-05-16T06:41:56.791Z,11.03
2023-05-16T06:44:24.979Z,11.17
2023-05-16T06:46:53.035Z,11.40
2023-05-16T06:49:20.973Z,11.87
2023-05-16T06:51:50.234Z,11.93
2023-05-16T06:54:18.176Z,12.13
2023-05-16T06:56:47.185Z,12.00
2023-05-16T06:59:15.131Z,11.97
2023-05-16T07:01:46.036Z,11.43
2023-05-16T07:04:14.274Z,11.23
2023-05-16T07:06:42.166Z,11.60
2023-05-16T07:09:11.493Z,10.80
2023-05-16T07:11:39.392Z,10.63
2023-05-16T07:14:07.201Z,10.47
2023-05-16T07:16:37.018Z,11.20
2023-05-16T07:19:05.029Z,10.63
2023-05-16T07:21:33.027Z,9.70
2023-05-16T07:24:01.335Z,10.07
2023-05-16T07:26:30.714Z,10.60
2023-05-16T07:28:58.980Z,10.63
2023-05-16T07:31:26.905Z,9.60
2023-05-16T07:33:54.817Z,10.70
2023-05-16T07:36:22.679Z,10.67
2023-05-16T07:38:50.585Z,10.37
2023-05-16T07:41:18.459Z,11.10
2023-05-16T07:43:47.658Z,10.80
2023-05-16T07:46:15.625Z,10.70
2023-05-16T07:48:43.772Z,11.60
2023-05-16T07:51:11.571Z,10.93
2023-05-16T07:53:39.519Z,11.67
2023-05-16T07:56:08.732Z,11.30
2023-05-16T07:58:39.063Z,11.17
2023-05-16T08:01:13.561Z,11.40
2023-05-16T08:03:41.537Z,11.70
2023-05-16T08:06:09.607Z,12.90
2023-05-16T08:08:38.023Z,13.50
2023-05-16T08:11:06.745Z,11.87
2023-05-16T08:13:34.687Z,12.50
2023-05-16T08:16:02.848Z,13.17
2023-05-16T08:18:32.497Z,12.57
2023-05-16T08:21:02.136Z,13.03
2023-05-16T08:23:30.156Z,14.07
2023-05-16T08:25:58.763Z,12.90
2023-05-16T08:28:26.600Z,15.13
2023-05-16T08:30:54.585Z,14.93
2023-05-16T08:33:22.510Z,13.27
2023-05-16T08:35:52.785Z,14.77
2023-05-16T08:38:20.885Z,15.70
2023-05-16T08:40:48.885Z,16.80
2023-05-16T08:43:16.827Z,16.13
2023-05-16T08:45:44.881Z,17.33
2023-05-16T08:48:12.964Z,18.60
2023-05-16T08:50:42.805Z,17.47
2023-05-16T08:53:15.908Z,17.90
2023-05-16T08:55:45.505Z,16.03
2023-05-16T08:58:14.764Z,17.37
2023-05-16T09:00:43.223Z,15.87
2023-05-16T09:03:11.596Z,18.93
2023-05-16T09:05:42.842Z,17.80
2023-05-16T09:08:12.606Z,16.97
2023-05-16T09:10:40.631Z,17.43
2023-05-16T09:13:08.543Z,16.70
2023-05-16T09:15:38.098Z,15.97
2023-05-16T09:18:06.093Z,16.30
2023-05-16T09:20:34.413Z,17.37
2023-05-16T09:23:03.325Z,16.70
2023-05-16T09:25:32.851Z,15.83
2023-05-16T09:28:03.398Z,15.13
2023-05-16T09:30:33.854Z,17.40
2023-05-16T09:33:02.505Z,15.70
2023-05-16T09:35:43.806Z,17.53
2023-05-16T09:38:17.074Z,17.27
2023-05-16T09:40:47.414Z,18.00
2023-05-16T09:43:18.017Z,18.60
2023-05-16T09:45:50.594Z,18.43
2023-05-16T09:48:19.074Z,20.70
2023-05-16T09:50:52.961Z,19.83
2023-05-16T09:53:27.585Z,20.03
2023-05-16T09:56:04.568Z,18.77
2023-05-16T09:58:33.268Z,19.50
2023-05-16T10:01:01.552Z,19.07
2023-05-16T10:03:30.547Z,17.20
2023-05-16T10:05:58.673Z,17.80
2023-05-16T10:08:27.784Z,17.57
2023-05-16T10:10:57.507Z,17.83
2023-05-16T10:13:30.817Z,19.47
2023-05-16T10:16:00.318Z,17.03
2023-05-16T10:18:31.576Z,17.83
2023-05-16T10:21:05.501Z,17.87
2023-05-16T10:23:34.841Z,16.97
2023-05-16T10:26:06.180Z,17.57
2023-05-16T10:28:36.688Z,17.90
2023-05-16T10:31:06.505Z,16.93
2023-05-16T10:33:34.569Z,18.70
2023-05-16T10:36:05.630Z,18.43
2023-05-16T10:38:34.853Z,18.23
2023-05-16T10:41:03.299Z,18.97
2023-05-16T10:43:33.373Z,19.23
2023-05-16T10:46:05.538Z,20.73
2023-05-16T10:48:34.979Z,21.60
2023-05-16T10:51:04.428Z,23.27
2023-05-16T10:53:34.330Z,23.77
2023-05-16T10:56:10.772Z,25.70
2023-05-16T10:58:46.017Z,23.97
2023-05-16T11:01:20.603Z,24.63
2023-05-16T11:04:06.899Z,24.93
2023-05-16T11:06:36.257Z,26.60
2023-05-16T11:09:10.318Z,27.53
2023-05-16T11:11:44.863Z,26.23
2023-05-16T11:14:23.243Z,25.37
2023-05-16T11:16:53.651Z,25.27
2023-05-16T11:19:31.989Z,26.97
2023-05-16T11:22:09.454Z,28.87
2023-05-16T11:24:39.114Z,26.60
2023-05-16T11:27:07.657Z,27.10
2023-05-16T11:29:37.385Z,26.47
2023-05-16T11:32:11.479Z,24.80
2023-05-16T11:34:39.766Z,24.60
2023-05-16T11:37:07.940Z,26.13
2023-05-16T11:39:36.000Z,27.70
2023-05-16T11:42:07.293Z,30.67
2023-05-16T11:44:38.534Z,29.93
2023-05-16T11:47:08.507Z,27.00
2023-05-16T11:49:36.811Z,26.17
2023-05-16T11:52:05.150Z,21.60
2023-05-16T11:54:34.600Z,18.17
2023-05-16T11:57:03.179Z,17.73
2023-05-16T11:59:31.303Z,18.50
2023-05-16T12:01:59.241Z,15.27
2023-05-16T12:04:29.687Z,15.47
2023-05-16T12:07:02.843Z,16.70
2023-05-16T12:09:30.893Z,18.50
2023-05-16T12:11:58.888Z,15.20
2023-05-16T12:14:27.571Z,14.80
2023-05-16T12:16:56.053Z,14.50
2023-05-16T12:19:24.431Z,13.60
2023-05-16T12:21:56.775Z,12.33
2023-05-16T12:24:30.991Z,14.60
2023-05-16T12:26:59.053Z,13.47
2023-05-16T12:29:26.989Z,11.93
2023-05-16T12:31:54.922Z,13.47
2023-05-16T12:34:23.388Z,13.10
2023-05-16T12:36:56.233Z,12.57
2023-05-16T12:39:24.169Z,12.70
2023-05-16T12:41:52.139Z,12.07
2023-05-16T12:44:23.787Z,12.47
2023-05-16T12:46:52.801Z,13.23
2023-05-16T12:49:22.721Z,12.20
2023-05-16T12:51:52.336Z,12.20
2023-05-16T12:54:23.035Z,12.23
2023-05-16T12:56:51.204Z,12.27
2023-05-16T12:59:20.320Z,12.20
2023-05-16T13:01:48.533Z,12.93
2023-05-16T13:04:19.544Z,12.80
2023-05-16T13:09:19.199Z,14.70
2023-05-16T13:11:48.477Z,14.53
2023-05-16T13:14:17.341Z,14.97
2023-05-16T13:16:45.634Z,15.57
2023-05-16T13:19:13.651Z,15.53
2023-05-16T13:21:41.754Z,14.93
2023-05-16T13:24:09.702Z,14.93
2023-05-16T13:26:37.533Z,15.47
2023-05-16T13:29:06.762Z,15.07
2023-05-16T13:31:34.623Z,16.93
2023-05-16T13:34:02.501Z,16.37
2023-05-16T13:36:41.461Z,17.10
2023-05-16T13:39:18.008Z,19.23
2023-05-16T13:41:47.361Z,11.10
2023-05-16T13:44:18.105Z,11.83
2023-05-16T13:46:46.317Z,10.53
2023-05-16T13:49:14.212Z,12.27
2023-05-16T13:51:42.026Z,12.07
2023-05-16T13:54:10.206Z,12.73
2023-05-16T13:56:38.108Z,12.73
2023-05-16T13:59:07.244Z,14.07
2023-05-16T14:01:37.525Z,13.03
2023-05-16T14:04:05.815Z,11.17
2023-05-16T14:06:33.682Z,11.90
2023-05-16T14:09:01.521Z,10.93
2023-05-16T14:11:29.786Z,9.97
2023-05-16T14:13:58.255Z,9.80
2023-05-16T14:16:26.225Z,9.73
2023-05-16T14:18:55.902Z,10.00
2023-05-16T14:21:23.801Z,10.37
2023-05-16T14:23:51.917Z,9.47
2023-05-16T14:26:22.589Z,11.13
2023-05-16T14:28:50.847Z,9.57
2023-05-16T14:31:18.970Z,14.37
2023-05-16T14:33:46.911Z,9.63
2023-05-16T14:36:16.288Z,9.90
2023-05-16T14:38:44.113Z,10.23
2023-05-16T14:41:11.995Z,10.37
2023-05-16T14:43:39.924Z,10.40
2023-05-16T14:46:07.863Z,10.40
2023-05-16T14:48:35.745Z,9.37
2023-05-16T14:51:03.590Z,9.53
2023-05-16T14:53:32.830Z,11.90
2023-05-16T14:56:02.724Z,10.10
2023-05-16T14:58:30.719Z,9.60
2023-05-16T15:00:58.607Z,10.30
2023-05-16T15:03:26.702Z,10.17
2023-05-16T15:05:54.726Z,10.70
2023-05-16T15:08:23.010Z,11.33
2023-05-16T15:10:52.212Z,10.43
2023-05-16T15:13:20.002Z,11.40
2023-05-16T15:15:47.890Z,11.93
2023-05-16T15:18:17.914Z,11.27
2023-05-16T15:20:45.949Z,11.60
2023-05-16T15:23:13.962Z,11.70
2023-05-16T15:25:41.797Z,11.90
2023-05-16T15:28:11.031Z,11.03
2023-05-16T15:30:38.938Z,11.93
2023-05-16T15:33:06.865Z,11.03
2023-05-16T15:35:34.705Z,10.40
2023-05-16T15:38:02.509Z,11.10
2023-05-16T15:40:30.354Z,12.07
2023-05-16T15:42:58.197Z,11.00
2023-05-16T15:45:27.604Z,10.90
2023-05-16T15:47:55.645Z,11.70
2023-05-16T15:50:23.771Z,11.80
2023-05-16T15:52:51.590Z,12.67
2023-05-16T15:55:19.546Z,12.33
2023-05-16T15:57:47.354Z,13.77
2023-05-16T16:00:16.438Z,13.07
2023-05-16T16:02:46.230Z,12.43
2023-05-16T16:05:14.438Z,12.50
2023-05-16T16:07:42.272Z,12.90
2023-05-16T16:10:11.388Z,12.10
2023-05-16T16:12:39.242Z,12.77
2023-05-16T16:15:08.176Z,12.93
2023-05-16T16:17:36.082Z,12.97
2023-05-16T16:20:06.047Z,13.67
2023-05-16T16:22:33.945Z,12.77
2023-05-16T16:25:01.758Z,13.90
2023-05-16T16:27:29.662Z,13.30
2023-05-16T16:29:57.746Z,14.60
2023-05-16T16:32:26.008Z,13.90
2023-05-16T16:34:53.875Z,14.57
2023-05-16T16:37:23.141Z,14.60
2023-05-16T16:39:50.989Z,14.47
2023-05-16T16:42:18.763Z,14.83
2023-05-16T16:44:46.601Z,16.57
2023-05-16T16:47:14.460Z,17.13
2023-05-16T16:49:42.386Z,17.30
2023-05-16T16:52:10.506Z,17.17
2023-05-16T16:54:39.806Z,17.50
2023-05-16T16:57:07.707Z,17.47
2023-05-16T16:59:35.864Z,19.30
2023-05-16T17:02:03.762Z,20.10
2023-05-16T17:04:31.710Z,22.07
2023-05-16T17:06:59.625Z,21.90
2023-05-16T17:09:27.586Z,20.60
2023-05-16T17:12:28.830Z,20.17
2023-05-16T17:14:57.254Z,19.80
2023-05-16T17:17:26.999Z,21.20
2023-05-16T17:19:54.927Z,21.20
2023-05-16T17:22:22.822Z,22.00
2023-05-16T17:24:50.685Z,20.33
2023-05-16T17:27:20.103Z,20.97
2023-05-16T17:29:47.944Z,19.37
2023-05-16T17:32:17.300Z,21.30
2023-05-16T17:34:47.348Z,21.30
2023-05-16T17:37:15.207Z,21.90
2023-05-16T17:39:43.081Z,20.43
2023-05-16T17:42:11.780Z,21.07
2023-05-16T17:44:41.943Z,22.87
2023-05-16T17:47:09.792Z,22.77
2023-05-16T17:49:37.733Z,23.30
2023-05-16T17:52:06.134Z,24.93
2023-05-16T17:54:34.162Z,23.70
2023-05-16T17:57:02.094Z,22.70
2023-05-16T17:59:30.037Z,22.37
2023-05-16T18:01:59.526Z,20.20
2023-05-16T18:04:27.635Z,22.90
2023-05-16T18:06:56.232Z,20.83
2023-05-16T18:09:24.251Z,22.07
2023-05-16T18:11:52.284Z,22.83
2023-05-16T18:14:20.374Z,20.53
2023-05-16T18:16:48.247Z,19.03
2023-05-16T18:19:17.567Z,18.73
2023-05-16T18:21:45.568Z,18.77
2023-05-16T18:24:13.700Z,18.77
2023-05-16T18:26:41.996Z,18.27
2023-05-16T18:29:10.776Z,18.87
2023-05-16T18:31:42.392Z,18.10
2023-05-16T18:34:11.457Z,18.23
2023-05-16T18:36:40.743Z,19.27
2023-05-16T18:39:10.575Z,20.27
2023-05-16T18:41:38.467Z,19.13
2023-05-16T18:44:06.404Z,19.27
2023-05-16T18:46:34.269Z,20.77
2023-05-16T18:49:02.248Z,21.13
2023-05-16T18:51:30.202Z,21.47
2023-05-16T18:53:59.425Z,21.30
2023-05-16T18:56:27.410Z,17.80
2023-05-16T18:58:55.666Z,15.43
2023-05-16T19:01:23.646Z,15.67
2023-05-16T19:03:51.865Z,15.73
2023-05-16T19:06:19.772Z,14.60
2023-05-16T19:08:48.440Z,15.63
2023-05-16T19:11:18.790Z,15.80
2023-05-16T19:13:47.113Z,14.83
2023-05-16T19:16:15.052Z,15.53
2023-05-16T19:18:43.046Z,14.70
2023-05-16T19:21:13.514Z,14.63
2023-05-16T19:23:41.587Z,15.47
2023-05-16T19:26:09.463Z,15.13
2023-05-16T19:28:40.772Z,14.73
2023-05-16T19:31:08.627Z,14.00
2023-05-16T19:33:36.969Z,13.67
2023-05-16T19:36:06.223Z,12.87
2023-05-16T19:38:34.058Z,13.23
2023-05-16T19:41:01.939Z,13.40
2023-05-16T19:43:30.016Z,12.30
2023-05-16T19:45:59.228Z,13.50
2023-05-16T19:48:27.921Z,12.83
2023-05-16T19:50:56.099Z,12.47
2023-05-16T19:53:23.938Z,12.47
2023-05-16T19:55:53.172Z,13.17
2023-05-16T19:58:21.058Z,11.93
2023-05-16T20:00:48.889Z,14.53
2023-05-16T20:03:18.158Z,12.27
2023-05-16T20:05:46.177Z,12.13
2023-05-16T20:08:14.107Z,11.80
2023-05-16T20:10:41.948Z,11.43
2023-05-16T20:13:09.766Z,11.57
2023-05-16T20:15:37.647Z,11.33
2023-05-16T20:18:05.771Z,11.73
2023-05-16T20:20:35.036Z,11.50
2023-05-16T20:23:03.676Z,11.40
2023-05-16T20:25:32.236Z,10.87
2023-05-16T20:28:00.128Z,11.60
2023-05-16T20:30:28.080Z,13.97
2023-05-16T20:32:56.078Z,14.83
2023-05-16T20:35:24.236Z,12.17
2023-05-16T20:37:53.524Z,10.90
2023-05-16T20:40:21.581Z,9.43
2023-05-16T20:42:49.448Z,12.60
2023-05-16T20:45:17.297Z,10.17
2023-05-16T20:47:45.313Z,9.97
2023-05-16T20:50:13.194Z,10.67
2023-05-16T20:52:41.192Z,10.40
2023-05-16T20:55:10.700Z,11.07
2023-05-16T20:57:38.526Z,9.93
2023-05-16T21:00:08.428Z,10.53
2023-05-16T21:02:36.316Z,9.70
2023-05-16T21:05:22.942Z,9.57
2023-05-16T21:07:52.287Z,9.17
2023-05-16T21:10:21.556Z,9.37
2023-05-16T21:12:50.149Z,8.13
2023-05-16T21:15:18.053Z,8.53
2023-05-16T21:17:46.091Z,7.97
2023-05-16T21:20:14.152Z,8.07
2023-05-16T21:22:42.525Z,10.07
2023-05-16T21:25:11.914Z,8.37
2023-05-16T21:27:41.193Z,7.10
2023-05-16T21:30:10.060Z,8.27
2023-05-16T21:32:37.985Z,6.77
2023-05-16T21:35:06.963Z,7.50
2023-05-16T21:37:34.875Z,7.00
2023-05-16T21:40:02.816Z,6.20
2023-05-16T21:42:30.880Z,7.23
2023-05-16T21:45:00.076Z,8.00
2023-05-16T21:47:27.949Z,7.33
2023-05-16T21:49:55.820Z,6.37
2023-05-16T21:52:23.626Z,6.67
2023-05-16T21:54:51.868Z,6.17
2023-05-16T21:57:20.445Z,6.07
2023-05-16T21:59:50.463Z,5.67
2023-05-16T22:02:22.987Z,6.23
2023-05-16T22:04:51.358Z,6.33
2023-05-16T22:07:19.248Z,6.03
2023-05-16T22:09:50.673Z,5.10
2023-05-16T22:12:18.553Z,5.10
2023-05-16T22:14:46.383Z,6.63
2023-05-16T22:17:14.259Z,5.20
2023-05-16T22:19:43.609Z,5.60
2023-05-16T22:22:12.338Z,6.23
2023-05-16T22:24:40.367Z,6.50
2023-05-16T22:27:08.402Z,6.93
2023-05-16T22:29:38.800Z,5.93
2023-05-16T22:32:08.450Z,6.13
2023-05-16T22:34:39.368Z,6.10
2023-05-16T22:37:09.155Z,6.67
2023-05-16T22:39:37.261Z,5.60
2023-05-16T22:42:05.711Z,5.10
2023-05-16T22:44:33.656Z,5.07
2023-05-16T22:47:01.613Z,4.70
2023-05-16T22:49:29.487Z,6.07
2023-05-16T22:51:57.374Z,7.53
2023-05-16T22:54:26.667Z,6.40
2023-05-16T22:56:54.506Z,6.90
2023-05-16T22:59:22.513Z,5.17
2023-05-16T23:01:50.450Z,3.70
2023-05-16T23:04:18.267Z,5.17
2023-05-16T23:06:46.134Z,6.27
2023-05-16T23:09:13.991Z,6.57
2023-05-16T23:11:43.156Z,5.17
2023-05-16T23:14:11.118Z,3.93
2023-05-16T23:16:38.917Z,3.70
2023-05-16T23:19:09.146Z,3.47
2023-05-16T23:21:37.554Z,7.37
2023-05-16T23:24:05.558Z,6.00
2023-05-16T23:26:33.431Z,4.43
2023-05-16T23:29:02.707Z,7.30
2023-05-16T23:31:30.631Z,6.40
2023-05-16T23:33:58.631Z,5.10
2023-05-16T23:36:26.502Z,9.00
2023-05-16T23:38:54.294Z,6.97
2023-05-16T23:41:22.149Z,3.73
2023-05-16T23:43:50.013Z,4.90
2023-05-16T23:46:19.216Z,5.93
2023-05-16T23:48:47.094Z,6.30
2023-05-16T23:51:15.025Z,4.37
2023-05-16T23:53:42.839Z,8.67
2023-05-16T23:56:10.671Z,8.87
2023-05-16T23:58:38.479Z,5.23
